createdAt,value
2023-03-21T00:01:05.676Z,26.02
2023-03-21T00:03:33.844Z,25.88
2023-03-21T00:06:12.741Z,26.80
2023-03-21T00:08:40.688Z,25.08
2023-03-21T00:11:16.793Z,23.73
2023-03-21T00:13:50.710Z,25.40
2023-03-21T00:16:28.135Z,21.38
2023-03-21T00:19:10.757Z,25.02
2023-03-21T00:21:51.830Z,23.15
2023-03-21T00:24:29.711Z,26.38
2023-03-21T00:27:29.876Z,24.65
2023-03-21T00:29:50.299Z,23.27
2023-03-21T00:32:24.843Z,23.20
2023-03-21T00:35:21.538Z,23.98
2023-03-21T00:37:47.600Z,25.63
2023-03-21T00:40:28.004Z,22.73
2023-03-21T00:42:56.186Z,24.90
2023-03-21T00:45:29.743Z,22.48
2023-03-21T00:48:00.115Z,29.95
2023-03-21T00:50:33.821Z,24.67
2023-03-21T00:53:01.065Z,24.42
2023-03-21T00:55:27.958Z,25.98
2023-03-21T00:58:02.656Z,23.40
2023-03-21T01:00:30.436Z,25.35
2023-03-21T01:03:23.580Z,26.48
2023-03-21T01:06:07.144Z,27.98
2023-03-21T01:08:52.999Z,23.42
2023-03-21T01:11:24.736Z,25.15
2023-03-21T01:14:14.615Z,27.60
2023-03-21T01:16:45.923Z,26.20
2023-03-21T01:19:30.885Z,26.88
2023-03-21T01:22:09.856Z,34.90
2023-03-21T01:24:40.467Z,32.35
2023-03-21T01:27:19.826Z,26.17
2023-03-21T01:29:46.649Z,32.03
2023-03-21T01:32:19.850Z,29.38
2023-03-21T01:34:46.592Z,28.88
2023-03-21T01:37:14.427Z,29.98
2023-03-21T01:39:47.895Z,30.08
2023-03-21T01:42:21.860Z,35.67
2023-03-21T01:45:02.810Z,32.13
2023-03-21T01:47:35.843Z,27.38
2023-03-21T01:50:10.857Z,32.17
2023-03-21T01:52:47.857Z,36.63
2023-03-21T01:55:22.880Z,33.58
2023-03-21T01:58:05.781Z,27.73
2023-03-21T02:00:34.004Z,25.27
2023-03-21T02:03:18.837Z,27.40
2023-03-21T02:06:00.814Z,37.63
2023-03-21T02:08:39.954Z,32.67
2023-03-21T02:11:09.933Z,33.38
2023-03-21T02:13:43.935Z,30.77
2023-03-21T02:16:25.221Z,29.75
2023-03-21T02:19:04.958Z,35.10
2023-03-21T02:21:50.157Z,33.60
2023-03-21T02:24:48.778Z,32.75
2023-03-21T02:27:30.920Z,31.75
2023-03-21T02:30:50.774Z,32.38
2023-03-21T02:33:47.995Z,29.77
2023-03-21T02:36:32.937Z,26.27
2023-03-21T02:39:15.112Z,27.35
2023-03-21T02:42:11.926Z,28.63
2023-03-21T02:44:46.463Z,29.77
2023-03-21T02:47:39.997Z,29.17
2023-03-21T02:50:25.979Z,24.65
2023-03-21T02:53:17.948Z,29.42
2023-03-21T02:55:53.417Z,25.98
2023-03-21T02:58:29.982Z,29.95
2023-03-21T03:00:57.266Z,25.45
2023-03-21T03:03:34.779Z,21.50
2023-03-21T03:06:09.972Z,25.90
2023-03-21T03:09:03.088Z,28.00
2023-03-21T03:11:45.974Z,29.73
2023-03-21T03:17:20.983Z,24.65
2023-03-21T03:23:00.999Z,26.67
2023-03-21T03:25:46.036Z,28.90
2023-03-21T03:28:16.860Z,29.17
2023-03-21T03:31:07.084Z,26.33
2023-03-21T03:33:46.005Z,25.10
2023-03-21T03:36:31.671Z,24.90
2023-03-21T03:39:01.997Z,25.38
2023-03-21T03:42:00.863Z,20.73
2023-03-21T03:44:23.069Z,21.80
2023-03-21T03:47:17.490Z,24.27
2023-03-21T03:49:50.918Z,21.95
2023-03-21T03:52:33.060Z,19.42
2023-03-21T03:55:07.060Z,19.83
2023-03-21T03:57:34.413Z,21.58
2023-03-21T04:00:08.046Z,18.23
2023-03-21T04:02:34.959Z,18.30
2023-03-21T04:05:08.084Z,16.23
2023-03-21T04:07:42.054Z,17.45
2023-03-21T04:10:16.054Z,18.13
2023-03-21T04:12:49.090Z,18.98
2023-03-21T04:15:23.141Z,21.80
2023-03-21T04:17:50.721Z,20.88
2023-03-21T04:20:36.194Z,21.60
2023-03-21T04:23:04.770Z,23.63
2023-03-21T04:25:54.027Z,24.42
2023-03-21T04:28:30.169Z,22.00
2023-03-21T04:31:03.462Z,20.13
2023-03-21T04:33:38.114Z,29.00
2023-03-21T04:36:16.181Z,18.65
2023-03-21T04:38:48.561Z,23.17
2023-03-21T04:41:22.107Z,20.58
2023-03-21T04:43:55.148Z,19.65
2023-03-21T04:46:22.218Z,28.10
2023-03-21T04:48:56.148Z,24.70
2023-03-21T04:51:23.174Z,22.25
2023-03-21T04:53:59.144Z,29.58
2023-03-21T04:56:38.215Z,28.88
2023-03-21T04:59:20.141Z,23.30
2023-03-21T05:01:54.199Z,28.88
2023-03-21T05:04:21.150Z,22.40
2023-03-21T05:06:55.182Z,19.63
2023-03-21T05:09:30.200Z,21.45
2023-03-21T05:11:57.107Z,21.23
2023-03-21T05:14:32.175Z,20.55
2023-03-21T05:17:08.192Z,21.52
2023-03-21T05:19:35.463Z,23.70
2023-03-21T05:22:14.226Z,20.60
2023-03-21T05:24:41.766Z,19.52
2023-03-21T05:27:15.255Z,21.02
2023-03-21T05:29:42.060Z,20.48
2023-03-21T05:32:15.173Z,15.80
2023-03-21T05:34:48.200Z,18.48
2023-03-21T05:37:15.472Z,13.93
2023-03-21T05:39:49.196Z,14.18
2023-03-21T05:42:16.182Z,16.58
2023-03-21T05:44:43.072Z,17.23
2023-03-21T05:47:16.241Z,18.30
2023-03-21T05:49:43.276Z,21.30
2023-03-21T05:52:17.203Z,15.85
2023-03-21T05:54:44.166Z,19.25
2023-03-21T05:57:11.283Z,17.98
2023-03-21T05:59:45.250Z,13.38
2023-03-21T06:02:13.244Z,13.65
2023-03-21T06:04:46.299Z,14.23
2023-03-21T06:07:19.259Z,19.70
2023-03-21T06:09:46.256Z,16.02
2023-03-21T06:12:21.277Z,13.18
2023-03-21T06:14:54.284Z,15.63
2023-03-21T06:17:27.292Z,17.98
2023-03-21T06:20:01.094Z,13.40
2023-03-21T06:22:35.267Z,12.48
2023-03-21T06:25:09.283Z,12.23
2023-03-21T06:27:36.766Z,13.88
2023-03-21T06:30:10.282Z,13.38
2023-03-21T06:32:37.112Z,16.67
2023-03-21T06:35:12.027Z,14.57
2023-03-21T06:37:38.960Z,16.60
2023-03-21T06:40:16.359Z,16.98
2023-03-21T06:42:49.307Z,20.08
2023-03-21T06:45:16.056Z,25.73
2023-03-21T06:47:49.312Z,17.02
2023-03-21T06:50:16.222Z,15.13
2023-03-21T06:52:49.318Z,15.48
2023-03-21T06:55:16.311Z,12.00
2023-03-21T06:57:49.339Z,16.00
2023-03-21T07:00:16.731Z,22.58
2023-03-21T07:02:51.318Z,23.75
2023-03-21T07:05:18.351Z,19.38
2023-03-21T07:07:51.342Z,17.30
2023-03-21T07:10:24.382Z,20.20
2023-03-21T07:12:51.162Z,15.90
2023-03-21T07:15:24.353Z,16.85
2023-03-21T07:17:51.199Z,19.35
2023-03-21T07:20:24.357Z,29.33
2023-03-21T07:22:53.808Z,27.13
2023-03-21T07:25:27.407Z,25.15
2023-03-21T07:27:54.271Z,22.35
2023-03-21T07:30:28.428Z,24.38
2023-03-21T07:32:55.270Z,21.70
2023-03-21T07:35:28.416Z,16.75
2023-03-21T07:37:55.311Z,17.85
2023-03-21T07:40:22.152Z,17.30
2023-03-21T07:42:57.426Z,14.73
2023-03-21T07:45:26.917Z,14.48
2023-03-21T07:48:03.522Z,15.57
2023-03-21T07:50:30.516Z,16.48
2023-03-21T07:53:04.410Z,15.40
2023-03-21T07:55:34.806Z,15.10
2023-03-21T07:58:09.462Z,12.15
2023-03-21T08:00:36.292Z,13.25
2023-03-21T08:03:09.467Z,16.98
2023-03-21T08:05:38.402Z,15.23
2023-03-21T08:08:12.497Z,13.15
2023-03-21T08:10:39.295Z,16.48
2023-03-21T08:13:16.755Z,15.43
2023-03-21T08:15:43.713Z,13.68
2023-03-21T08:18:11.479Z,12.40
2023-03-21T08:20:45.635Z,11.90
2023-03-21T08:23:13.860Z,20.67
2023-03-21T08:25:40.949Z,18.65
2023-03-21T08:28:14.764Z,20.38
2023-03-21T08:30:41.531Z,16.08
2023-03-21T08:33:13.216Z,13.65
2023-03-21T08:35:47.561Z,19.73
2023-03-21T08:38:14.549Z,15.75
2023-03-21T08:40:41.554Z,15.05
2023-03-21T08:43:17.500Z,14.18
2023-03-21T08:45:49.540Z,12.20
2023-03-21T08:48:27.805Z,15.45
2023-03-21T08:50:54.720Z,14.30
2023-03-21T08:53:21.857Z,13.00
2023-03-21T08:55:56.540Z,16.20
2023-03-21T08:58:23.415Z,16.67
2023-03-21T09:00:57.532Z,14.80
2023-03-21T09:03:31.550Z,9.80
2023-03-21T09:05:59.095Z,11.65
2023-03-21T09:08:32.875Z,13.48
2023-03-21T09:10:59.690Z,11.55
2023-03-21T09:13:26.746Z,11.38
2023-03-21T09:16:01.645Z,14.80
2023-03-21T09:18:48.939Z,14.52
2023-03-21T09:21:24.618Z,18.35
2023-03-21T09:24:01.627Z,11.60
2023-03-21T09:26:28.864Z,14.65
2023-03-21T09:28:56.288Z,11.23
2023-03-21T09:31:29.605Z,11.90
2023-03-21T09:33:58.306Z,13.45
2023-03-21T09:36:33.619Z,12.27
2023-03-21T09:39:00.590Z,8.98
2023-03-21T09:41:30.625Z,9.45
2023-03-21T09:44:34.643Z,13.80
2023-03-21T09:47:17.587Z,12.50
2023-03-21T09:50:01.686Z,14.57
2023-03-21T09:53:00.988Z,14.38
2023-03-21T09:55:41.914Z,10.57
2023-03-21T09:58:41.327Z,12.77
2023-03-21T10:01:33.665Z,11.93
2023-03-21T10:04:05.469Z,11.48
2023-03-21T10:06:40.828Z,12.82
2023-03-21T10:09:15.323Z,12.30
2023-03-21T10:11:55.699Z,15.25
2023-03-21T10:14:31.798Z,15.32
2023-03-21T10:17:13.652Z,13.82
2023-03-21T10:19:41.952Z,14.57
2023-03-21T10:22:15.636Z,16.27
2023-03-21T10:24:42.559Z,15.75
2023-03-21T10:27:19.666Z,11.98
2023-03-21T10:29:52.678Z,13.40
2023-03-21T10:32:26.656Z,12.18
2023-03-21T10:37:35.660Z,14.25
2023-03-21T10:40:03.489Z,12.70
2023-03-21T10:42:40.671Z,14.00
2023-03-21T10:45:18.885Z,11.85
2023-03-21T10:47:55.954Z,10.23
2023-03-21T10:50:26.830Z,13.90
2023-03-21T10:53:06.805Z,17.08
2023-03-21T10:55:41.884Z,14.40
2023-03-21T10:58:25.761Z,18.63
2023-03-21T11:01:01.622Z,12.32
2023-03-21T11:03:49.756Z,14.70
2023-03-21T11:06:32.962Z,13.98
2023-03-21T11:09:14.975Z,11.88
2023-03-21T11:12:00.744Z,11.40
2023-03-21T11:14:44.254Z,11.63
2023-03-21T11:17:23.716Z,13.07
2023-03-21T11:20:01.088Z,12.23
2023-03-21T11:22:45.743Z,10.02
2023-03-21T11:25:45.747Z,9.85
2023-03-21T11:28:30.789Z,11.88
2023-03-21T11:31:00.367Z,10.70
2023-03-21T11:33:39.774Z,10.60
2023-03-21T11:36:18.499Z,13.73
2023-03-21T11:39:16.814Z,10.10
2023-03-21T11:41:48.008Z,12.35
2023-03-21T11:44:42.926Z,16.17
2023-03-21T11:47:19.816Z,13.88
2023-03-21T11:49:58.347Z,9.88
2023-03-21T11:52:43.601Z,14.68
2023-03-21T11:55:37.034Z,15.25
2023-03-21T11:58:14.632Z,14.73
2023-03-21T12:01:11.881Z,17.13
2023-03-21T12:04:05.378Z,17.58
2023-03-21T12:07:01.938Z,15.93
2023-03-21T12:09:28.717Z,14.80
2023-03-21T12:12:24.268Z,14.75
2023-03-21T12:15:16.858Z,19.63
2023-03-21T12:18:06.153Z,16.73
2023-03-21T12:20:52.838Z,13.15
2023-03-21T12:23:48.278Z,15.68
2023-03-21T12:26:43.851Z,18.20
2023-03-21T12:29:36.377Z,17.77
2023-03-21T12:35:06.779Z,12.00
2023-03-21T12:37:59.851Z,12.70
2023-03-21T12:40:51.075Z,14.82
2023-03-21T12:43:55.179Z,15.25
2023-03-21T12:46:51.991Z,13.60
2023-03-21T12:49:24.877Z,13.20
2023-03-21T12:52:03.911Z,11.48
2023-03-21T12:54:40.906Z,14.27
2023-03-21T12:57:57.564Z,16.73
2023-03-21T13:00:33.779Z,11.32
2023-03-21T13:03:11.929Z,11.68
2023-03-21T13:05:50.611Z,11.18
2023-03-21T13:08:35.942Z,11.20
2023-03-21T13:11:10.928Z,11.15
2023-03-21T13:13:46.922Z,12.18
2023-03-21T13:16:29.029Z,14.75
2023-03-21T13:19:20.965Z,14.48
2023-03-21T13:22:20.935Z,17.33
2023-03-21T13:24:56.935Z,12.93
2023-03-21T13:27:32.811Z,12.88
2023-03-21T13:30:16.040Z,16.25
2023-03-21T13:32:44.896Z,12.45
2023-03-21T13:35:41.452Z,12.45
2023-03-21T13:38:25.930Z,11.05
2023-03-21T13:41:03.360Z,14.40
2023-03-21T13:43:50.993Z,14.93
2023-03-21T13:46:40.599Z,13.65
2023-03-21T13:49:42.017Z,10.10
2023-03-21T13:52:08.811Z,10.98
2023-03-21T13:55:04.011Z,15.65
2023-03-21T13:57:37.003Z,13.45
2023-03-21T14:00:31.226Z,13.98
2023-03-21T14:03:14.140Z,14.10
2023-03-21T14:05:48.181Z,12.48
2023-03-21T14:08:27.808Z,17.23
2023-03-21T14:11:10.041Z,15.13
2023-03-21T14:13:51.364Z,14.57
2023-03-21T14:16:20.410Z,12.55
2023-03-21T14:19:03.024Z,14.38
2023-03-21T14:21:33.007Z,15.63
2023-03-21T14:24:19.135Z,13.18
2023-03-21T14:26:58.029Z,13.27
2023-03-21T14:29:40.111Z,18.55
2023-03-21T14:32:07.621Z,18.33
2023-03-21T14:34:43.510Z,12.30
2023-03-21T14:37:47.040Z,15.50
2023-03-21T14:40:22.657Z,17.30
2023-03-21T14:42:58.052Z,15.10
2023-03-21T14:45:28.028Z,14.70
2023-03-21T14:48:10.130Z,14.87
2023-03-21T14:51:05.952Z,15.15
2023-03-21T14:53:44.091Z,17.60
2023-03-21T14:56:23.148Z,16.15
2023-03-21T14:58:57.085Z,15.30
2023-03-21T15:01:34.708Z,15.32
2023-03-21T15:04:13.075Z,17.48
2023-03-21T15:06:59.028Z,12.52
2023-03-21T15:09:36.112Z,14.60
2023-03-21T15:12:16.103Z,11.07
2023-03-21T15:14:43.151Z,14.05
2023-03-21T15:17:10.951Z,13.27
2023-03-21T15:19:47.157Z,11.82
2023-03-21T15:22:47.142Z,10.32
2023-03-21T15:25:18.226Z,10.32
2023-03-21T15:27:52.162Z,10.82
2023-03-21T15:30:31.171Z,12.80
2023-03-21T15:33:05.006Z,11.15
2023-03-21T15:35:56.205Z,14.27
2023-03-21T15:38:42.531Z,11.18
2023-03-21T15:41:26.216Z,12.55
2023-03-21T15:44:09.132Z,11.63
2023-03-21T15:46:54.202Z,16.67
2023-03-21T15:49:31.469Z,14.00
2023-03-21T15:52:14.132Z,12.85
2023-03-21T15:54:48.009Z,11.55
2023-03-21T15:57:31.144Z,11.20
2023-03-21T16:00:15.178Z,12.05
2023-03-21T16:02:50.298Z,11.50
2023-03-21T16:05:34.091Z,11.30
2023-03-21T16:08:29.220Z,11.60
2023-03-21T16:11:33.274Z,8.98
2023-03-21T16:14:00.305Z,13.20
2023-03-21T16:16:29.643Z,10.82
2023-03-21T16:19:04.268Z,8.25
2023-03-21T16:21:34.106Z,12.30
2023-03-21T16:24:10.371Z,10.75
2023-03-21T16:26:50.230Z,8.82
2023-03-21T16:29:18.648Z,8.25
2023-03-21T16:31:48.401Z,9.82
2023-03-21T16:34:22.224Z,6.93
2023-03-21T16:36:49.169Z,6.25
2023-03-21T16:39:28.215Z,6.00
2023-03-21T16:42:01.256Z,9.27
2023-03-21T16:44:34.268Z,8.15
2023-03-21T16:47:10.271Z,9.85
2023-03-21T16:49:44.287Z,6.88
2023-03-21T16:52:12.910Z,6.88
2023-03-21T16:54:47.411Z,8.45
2023-03-21T16:57:27.833Z,11.88
2023-03-21T17:00:02.282Z,10.93
2023-03-21T17:02:29.153Z,8.98
2023-03-21T17:05:04.543Z,8.85
2023-03-21T17:07:38.278Z,8.38
2023-03-21T17:10:13.600Z,10.32
2023-03-21T17:12:47.296Z,7.80
2023-03-21T17:15:21.283Z,7.68
2023-03-21T17:17:50.048Z,9.23
2023-03-21T17:20:31.293Z,10.20
2023-03-21T17:22:58.162Z,10.68
2023-03-21T17:25:32.275Z,14.98
2023-03-21T17:27:59.253Z,10.82
2023-03-21T17:30:48.345Z,11.30
2023-03-21T17:33:15.450Z,12.40
2023-03-21T17:35:42.319Z,13.88
2023-03-21T17:38:22.336Z,11.52
2023-03-21T17:40:55.359Z,9.18
2023-03-21T17:43:29.345Z,9.10
2023-03-21T17:45:57.295Z,9.90
2023-03-21T17:48:31.337Z,9.95
2023-03-21T17:51:04.346Z,11.43
2023-03-21T17:53:31.195Z,9.55
2023-03-21T17:56:04.385Z,11.55
2023-03-21T17:58:38.394Z,8.52
2023-03-21T18:01:05.238Z,10.02
2023-03-21T18:03:38.533Z,10.75
2023-03-21T18:06:06.552Z,10.75
2023-03-21T18:08:40.393Z,9.88
2023-03-21T18:11:07.500Z,8.40
2023-03-21T18:13:40.374Z,8.70
2023-03-21T18:16:07.562Z,10.63
2023-03-21T18:18:35.092Z,12.20
2023-03-21T18:21:08.413Z,9.35
2023-03-21T18:23:41.446Z,8.93
2023-03-21T18:26:09.812Z,10.90
2023-03-21T18:28:45.495Z,11.05
2023-03-21T18:31:19.899Z,9.23
2023-03-21T18:33:55.387Z,12.25
2023-03-21T18:36:25.387Z,11.05
2023-03-21T18:39:03.481Z,11.68
2023-03-21T18:41:31.064Z,12.50
2023-03-21T18:44:15.981Z,11.25
2023-03-21T18:46:57.494Z,13.80
2023-03-21T18:52:18.508Z,12.50
2023-03-21T18:54:51.470Z,10.88
2023-03-21T18:57:37.515Z,10.25
2023-03-21T19:00:19.507Z,10.88
2023-03-21T19:03:09.970Z,11.13
2023-03-21T19:05:48.463Z,9.93
2023-03-21T19:08:21.518Z,10.25
2023-03-21T19:10:48.938Z,9.70
2023-03-21T19:13:22.469Z,14.13
2023-03-21T19:15:49.874Z,9.77
2023-03-21T19:18:54.139Z,9.05
2023-03-21T19:21:11.266Z,8.02
2023-03-21T19:24:20.868Z,10.13
2023-03-21T19:26:37.461Z,7.07
2023-03-21T19:29:10.547Z,9.90
2023-03-21T19:31:37.507Z,10.13
2023-03-21T19:34:10.580Z,8.00
2023-03-21T19:36:37.490Z,12.82
2023-03-21T19:39:10.540Z,9.57
2023-03-21T19:41:38.398Z,11.95
2023-03-21T19:44:13.542Z,10.20
2023-03-21T19:46:41.040Z,13.18
2023-03-21T19:49:14.539Z,12.38
2023-03-21T19:51:47.544Z,10.52
2023-03-21T19:54:17.326Z,9.32
2023-03-21T19:56:51.557Z,14.40
2023-03-21T19:59:24.658Z,11.63
2023-03-21T20:02:08.834Z,11.13
2023-03-21T20:04:50.603Z,9.63
2023-03-21T20:07:17.471Z,11.30
2023-03-21T20:09:51.915Z,11.75
2023-03-21T20:12:26.776Z,12.98
2023-03-21T20:15:01.610Z,12.00
2023-03-21T20:17:42.625Z,11.25
2023-03-21T20:20:10.215Z,9.80
2023-03-21T20:23:05.179Z,12.27
2023-03-21T20:25:31.891Z,8.25
2023-03-21T20:28:14.678Z,9.15
2023-03-21T20:30:54.672Z,11.88
2023-03-21T20:33:28.642Z,12.45
2023-03-21T20:38:56.848Z,11.90
2023-03-21T20:41:23.704Z,13.18
2023-03-21T20:44:39.085Z,11.63
2023-03-21T20:46:53.667Z,9.20
2023-03-21T20:49:23.003Z,10.40
2023-03-21T20:54:43.783Z,10.15
2023-03-21T20:57:17.669Z,12.50
2023-03-21T20:59:45.740Z,12.63
2023-03-21T21:02:20.672Z,9.85
2023-03-21T21:05:24.311Z,12.95
2023-03-21T21:07:49.678Z,11.23
2023-03-21T21:10:17.929Z,9.57
2023-03-21T21:12:51.680Z,8.27
2023-03-21T21:15:18.572Z,9.32
2023-03-21T21:18:05.463Z,10.80
2023-03-21T21:20:33.709Z,8.13
2023-03-21T21:23:07.669Z,6.93
2023-03-21T21:25:35.198Z,6.63
2023-03-21T21:28:09.856Z,8.13
2023-03-21T21:30:44.721Z,13.00
2023-03-21T21:33:14.381Z,9.32
2023-03-21T21:35:56.790Z,9.25
2023-03-21T21:40:58.716Z,7.57
2023-03-21T21:43:25.796Z,9.93
2023-03-21T21:45:53.222Z,11.45
2023-03-21T21:48:26.708Z,10.40
2023-03-21T21:50:54.170Z,11.88
2023-03-21T21:53:27.717Z,11.20
2023-03-21T21:55:55.944Z,9.98
2023-03-21T21:58:29.716Z,12.10
2023-03-21T22:01:01.751Z,11.50
2023-03-21T22:06:10.575Z,11.25
2023-03-21T22:08:44.742Z,12.98
2023-03-21T22:11:11.571Z,10.32
2023-03-21T22:13:44.750Z,13.68
2023-03-21T22:16:12.157Z,10.73
2023-03-21T22:18:39.051Z,17.70
2023-03-21T22:21:13.780Z,11.98
2023-03-21T22:23:49.794Z,12.02
2023-03-21T22:26:16.699Z,13.73
2023-03-21T22:28:49.817Z,8.43
2023-03-21T22:31:17.131Z,13.32
2023-03-21T22:33:51.807Z,10.70
2023-03-21T22:36:26.802Z,9.35
2023-03-21T22:38:59.785Z,16.42
2023-03-21T22:41:27.155Z,10.27
2023-03-21T22:44:01.023Z,12.43
2023-03-21T22:46:40.774Z,11.35
2023-03-21T22:49:13.886Z,7.65
2023-03-21T22:51:41.453Z,12.43
2023-03-21T22:54:14.852Z,10.05
2023-03-21T22:56:41.698Z,8.27
2023-03-21T22:59:14.810Z,9.60
2023-03-21T23:01:47.934Z,9.73
2023-03-21T23:04:15.584Z,11.63
2023-03-21T23:06:49.860Z,10.30
2023-03-21T23:09:21.227Z,9.32
2023-03-21T23:11:55.897Z,10.27
2023-03-21T23:14:31.838Z,13.70
2023-03-21T23:17:08.874Z,11.27
2023-03-21T23:19:35.979Z,9.75
2023-03-21T23:22:03.179Z,7.90
2023-03-21T23:24:36.958Z,11.20
2023-03-21T23:27:08.829Z,9.25
2023-03-21T23:29:41.897Z,9.07
2023-03-21T23:32:18.729Z,8.40
2023-03-21T23:34:51.917Z,14.63
2023-03-21T23:37:18.792Z,9.05
2023-03-21T23:39:52.204Z,15.88
2023-03-21T23:42:25.996Z,11.77
2023-03-21T23:44:58.940Z,12.25
2023-03-21T23:47:25.811Z,14.20
2023-03-21T23:49:58.959Z,11.80
2023-03-21T23:52:26.078Z,11.32
2023-03-21T23:54:59.901Z,12.07
2023-03-21T23:57:27.127Z,9.18
